createdAt,value
2018-12-18T00:01:32.914Z,2.01
2018-12-18T00:04:00.511Z,2.03
2018-12-18T00:06:28.135Z,2.04
2018-12-18T00:08:55.727Z,2.05
2018-12-18T00:11:23.344Z,2.06
2018-12-18T00:13:50.934Z,2.07
2018-12-18T00:16:18.552Z,2.05
2018-12-18T00:18:46.146Z,2.05
2018-12-18T00:21:13.768Z,2.05
2018-12-18T00:23:41.354Z,2.07
2018-12-18T00:26:08.975Z,2.09
2018-12-18T00:28:36.564Z,2.10
2018-12-18T00:31:04.179Z,2.11
2018-12-18T00:33:31.768Z,2.12
2018-12-18T00:35:59.462Z,2.15
2018-12-18T00:38:27.054Z,2.16
2018-12-18T00:40:54.642Z,2.16
2018-12-18T00:43:22.253Z,2.17
2018-12-18T00:45:50.132Z,2.19
2018-12-18T00:48:17.751Z,2.21
2018-12-18T00:50:45.347Z,2.22
2018-12-18T00:53:12.965Z,2.22
2018-12-18T00:55:40.554Z,2.24
2018-12-18T00:58:08.171Z,2.24
2018-12-18T01:00:35.763Z,2.25
2018-12-18T01:03:03.372Z,2.24
2018-12-18T01:05:30.962Z,2.24
2018-12-18T01:07:58.580Z,2.23
2018-12-18T01:10:26.171Z,2.25
2018-12-18T01:12:53.787Z,2.30
2018-12-18T01:15:21.381Z,2.29
2018-12-18T01:17:48.993Z,2.31
2018-12-18T01:20:16.583Z,2.31
2018-12-18T01:22:44.200Z,2.32
2018-12-18T01:25:11.789Z,2.33
2018-12-18T01:27:39.407Z,2.34
2018-12-18T01:30:06.998Z,2.35
2018-12-18T01:32:34.611Z,2.36
2018-12-18T01:35:02.203Z,2.38
2018-12-18T01:37:29.813Z,2.39
2018-12-18T01:39:57.411Z,2.40
2018-12-18T01:42:25.023Z,2.41
2018-12-18T01:44:52.618Z,2.43
2018-12-18T01:47:20.231Z,2.44
2018-12-18T01:49:47.826Z,2.46
2018-12-18T01:52:15.447Z,2.46
2018-12-18T01:54:43.040Z,2.47
2018-12-18T01:57:10.663Z,2.46
2018-12-18T02:02:47.557Z,2.50
2018-12-18T02:05:15.152Z,2.52
2018-12-18T02:07:42.771Z,2.53
2018-12-18T02:10:10.368Z,2.56
2018-12-18T02:12:37.986Z,2.58
2018-12-18T02:15:05.825Z,2.60
2018-12-18T02:17:33.547Z,2.60
2018-12-18T02:20:01.143Z,2.61
2018-12-18T02:22:28.735Z,2.59
2018-12-18T02:27:55.063Z,2.53
2018-12-18T02:30:22.659Z,2.52
2018-12-18T02:32:50.308Z,2.52
2018-12-18T02:35:17.906Z,2.50
2018-12-18T02:37:45.764Z,2.49
2018-12-18T02:40:13.380Z,2.49
2018-12-18T02:42:40.981Z,2.47
2018-12-18T02:45:08.780Z,2.50
2018-12-18T02:47:36.377Z,2.54
2018-12-18T02:50:05.050Z,2.60
2018-12-18T02:52:32.644Z,2.64
2018-12-18T02:55:00.267Z,2.71
2018-12-18T02:57:27.865Z,2.76
2018-12-18T02:59:55.623Z,2.79
2018-12-18T03:02:23.215Z,2.81
2018-12-18T03:04:50.832Z,2.80
2018-12-18T03:07:18.417Z,2.81
2018-12-18T03:09:46.034Z,2.85
2018-12-18T03:12:13.628Z,2.85
2018-12-18T03:14:41.257Z,2.87
2018-12-18T03:17:08.854Z,2.88
2018-12-18T03:19:36.473Z,2.90
2018-12-18T03:22:04.163Z,2.89
2018-12-18T03:24:31.783Z,2.91
2018-12-18T03:26:59.379Z,2.94
2018-12-18T03:29:27.238Z,2.99
2018-12-18T03:31:55.621Z,3.01
2018-12-18T03:34:28.254Z,3.04
2018-12-18T03:36:52.864Z,3.07
2018-12-18T03:39:20.459Z,3.11
2018-12-18T03:41:48.073Z,3.13
2018-12-18T03:44:15.668Z,3.17
2018-12-18T03:46:43.284Z,3.18
2018-12-18T03:49:10.885Z,3.21
2018-12-18T03:51:38.508Z,3.25
2018-12-18T03:54:06.102Z,3.27
2018-12-18T03:56:33.728Z,3.29
2018-12-18T03:59:01.331Z,3.30
2018-12-18T04:01:28.966Z,3.31
2018-12-18T04:03:56.579Z,3.33
2018-12-18T04:06:24.208Z,3.35
2018-12-18T04:08:51.807Z,3.35
2018-12-18T04:11:19.435Z,3.35
2018-12-18T04:13:47.115Z,3.36
2018-12-18T04:16:14.739Z,3.38
2018-12-18T04:18:42.421Z,3.37
2018-12-18T04:21:10.044Z,3.40
2018-12-18T04:23:37.646Z,3.42
2018-12-18T04:26:05.263Z,3.43
2018-12-18T04:28:32.858Z,3.43
2018-12-18T04:31:00.470Z,3.41
2018-12-18T04:33:28.064Z,3.41
2018-12-18T04:35:55.685Z,3.40
2018-12-18T04:38:23.291Z,3.39
2018-12-18T04:40:50.895Z,3.40
2018-12-18T04:43:18.515Z,3.43
2018-12-18T04:45:46.111Z,3.46
2018-12-18T04:48:13.727Z,3.47
2018-12-18T04:50:41.323Z,3.48
2018-12-18T04:53:08.946Z,3.48
2018-12-18T04:55:36.549Z,3.47
2018-12-18T04:58:04.165Z,3.50
2018-12-18T05:00:31.768Z,3.52
2018-12-18T05:02:59.387Z,3.52
2018-12-18T05:05:26.992Z,3.50
2018-12-18T05:07:54.614Z,3.44
2018-12-18T05:10:22.215Z,3.43
2018-12-18T05:12:49.840Z,3.46
2018-12-18T05:15:17.442Z,3.51
2018-12-18T05:17:45.060Z,3.54
2018-12-18T05:20:12.683Z,3.55
2018-12-18T05:22:40.311Z,3.56
2018-12-18T05:25:07.908Z,3.54
2018-12-18T05:27:35.527Z,3.53
2018-12-18T05:30:03.209Z,3.51
2018-12-18T05:32:30.838Z,3.53
2018-12-18T05:34:58.440Z,3.53
2018-12-18T05:37:26.060Z,3.52
2018-12-18T05:39:53.655Z,3.54
2018-12-18T05:42:21.275Z,3.56
2018-12-18T05:44:48.878Z,3.59
2018-12-18T05:47:16.501Z,3.60
2018-12-18T05:49:44.099Z,3.62
2018-12-18T05:52:11.726Z,3.60
2018-12-18T05:54:39.341Z,3.60
2018-12-18T05:57:06.945Z,3.61
2018-12-18T05:59:34.564Z,3.61
2018-12-18T06:02:02.160Z,3.61
2018-12-18T06:04:29.774Z,3.63
2018-12-18T06:06:57.383Z,3.65
2018-12-18T06:09:25.004Z,3.67
2018-12-18T06:11:52.603Z,3.71
2018-12-18T06:14:20.227Z,3.74
2018-12-18T06:16:47.829Z,3.76
2018-12-18T06:19:15.451Z,3.76
2018-12-18T06:21:43.050Z,3.76
2018-12-18T06:24:10.672Z,3.72
2018-12-18T06:26:38.283Z,3.69
2018-12-18T06:29:05.906Z,3.67
2018-12-18T06:31:33.510Z,3.67
2018-12-18T06:34:01.128Z,3.70
2018-12-18T06:36:28.725Z,3.68
2018-12-18T06:38:56.344Z,3.67
2018-12-18T06:41:23.942Z,3.66
2018-12-18T06:43:51.648Z,3.65
2018-12-18T06:46:19.247Z,3.67
2018-12-18T06:48:46.954Z,3.68
2018-12-18T06:51:14.569Z,3.68
2018-12-18T06:53:42.189Z,3.65
2018-12-18T06:56:09.778Z,3.62
2018-12-18T06:58:37.398Z,3.61
2018-12-18T07:01:05.074Z,3.59
2018-12-18T07:03:32.704Z,3.55
2018-12-18T07:06:00.301Z,3.53
2018-12-18T07:08:27.920Z,3.52
2018-12-18T07:10:55.514Z,3.51
2018-12-18T07:13:23.272Z,3.53
2018-12-18T07:15:50.871Z,3.55
2018-12-18T07:18:18.492Z,3.54
2018-12-18T07:20:46.114Z,3.55
2018-12-18T07:23:13.735Z,3.55
2018-12-18T07:25:41.331Z,3.55
2018-12-18T07:28:08.954Z,3.56
2018-12-18T07:30:36.639Z,3.56
2018-12-18T07:33:04.244Z,3.55
2018-12-18T07:35:31.863Z,3.55
2018-12-18T07:37:59.535Z,3.52
2018-12-18T07:40:27.215Z,3.52
2018-12-18T07:42:54.811Z,3.51
2018-12-18T07:45:22.429Z,3.52
2018-12-18T07:47:50.029Z,3.54
2018-12-18T07:50:17.652Z,3.55
2018-12-18T07:52:45.247Z,3.56
2018-12-18T07:55:12.870Z,3.60
2018-12-18T07:57:40.463Z,3.60
2018-12-18T08:00:08.167Z,3.62
2018-12-18T08:02:35.801Z,3.62
2018-12-18T08:05:03.422Z,3.61
2018-12-18T08:07:31.017Z,3.63
2018-12-18T08:09:58.638Z,3.65
2018-12-18T08:12:26.236Z,3.66
2018-12-18T08:14:53.856Z,3.67
2018-12-18T08:17:21.450Z,3.69
2018-12-18T08:19:49.080Z,3.70
2018-12-18T08:22:16.679Z,3.70
2018-12-18T08:24:44.299Z,3.73
2018-12-18T08:27:11.896Z,3.76
2018-12-18T08:29:40.172Z,3.76
2018-12-18T08:32:07.763Z,3.76
2018-12-18T08:34:35.379Z,3.75
2018-12-18T08:37:02.980Z,3.76
2018-12-18T08:39:30.595Z,3.77
2018-12-18T08:41:58.191Z,3.76
2018-12-18T08:44:25.811Z,3.72
2018-12-18T08:46:53.418Z,3.77
2018-12-18T08:49:21.038Z,3.83
2018-12-18T08:51:48.631Z,3.91
2018-12-18T08:54:16.261Z,3.95
2018-12-18T08:56:43.860Z,4.04
2018-12-18T08:59:11.474Z,4.09
2018-12-18T09:01:39.070Z,4.09
2018-12-18T09:04:06.691Z,4.15
2018-12-18T09:06:34.291Z,4.16
2018-12-18T09:09:01.921Z,4.10
2018-12-18T09:11:29.518Z,4.09
2018-12-18T09:13:57.132Z,4.09
2018-12-18T09:16:30.365Z,4.13
2018-12-18T09:18:58.056Z,4.17
2018-12-18T09:21:25.739Z,4.24
2018-12-18T09:23:53.336Z,4.27
2018-12-18T09:26:20.953Z,4.34
2018-12-18T09:28:48.547Z,4.39
2018-12-18T09:31:16.168Z,4.43
2018-12-18T09:33:43.764Z,4.41
2018-12-18T09:36:11.372Z,4.47
2018-12-18T09:38:44.518Z,4.54
2018-12-18T09:41:17.922Z,4.57
2018-12-18T09:43:51.257Z,4.65
2018-12-18T09:46:18.871Z,4.73
2018-12-18T09:48:46.460Z,4.81
2018-12-18T09:51:14.072Z,4.84
2018-12-18T09:53:41.660Z,4.89
2018-12-18T09:56:09.274Z,4.85
2018-12-18T09:58:36.875Z,4.82
2018-12-18T10:01:04.491Z,4.78
2018-12-18T10:03:33.602Z,4.81
2018-12-18T10:06:01.548Z,4.81
2018-12-18T10:08:29.136Z,4.71
2018-12-18T10:10:56.760Z,4.79
2018-12-18T10:13:24.359Z,4.83
2018-12-18T10:15:51.982Z,4.86
2018-12-18T10:18:19.574Z,4.88
2018-12-18T10:20:47.182Z,4.90
2018-12-18T10:23:14.863Z,4.88
2018-12-18T10:25:42.486Z,4.90
2018-12-18T10:28:10.083Z,4.97
2018-12-18T10:30:37.692Z,5.03
2018-12-18T10:33:05.363Z,5.03
2018-12-18T10:35:36.596Z,5.10
2018-12-18T10:38:02.603Z,5.08
2018-12-18T10:40:30.238Z,5.11
2018-12-18T10:42:57.836Z,5.11
2018-12-18T10:45:25.418Z,5.20
2018-12-18T10:47:53.038Z,5.31
2018-12-18T10:50:20.635Z,5.38
2018-12-18T10:52:48.254Z,5.40
2018-12-18T10:55:15.845Z,5.44
2018-12-18T10:57:43.459Z,5.40
2018-12-18T11:00:13.549Z,5.48
2018-12-18T11:02:41.165Z,5.61
2018-12-18T11:05:08.751Z,5.72
2018-12-18T11:07:36.363Z,5.80
2018-12-18T11:10:04.715Z,5.84
2018-12-18T11:12:37.815Z,5.88
2018-12-18T11:15:05.576Z,5.87
2018-12-18T11:17:33.195Z,5.84
2018-12-18T11:20:00.786Z,5.70
2018-12-18T11:22:28.395Z,5.65
2018-12-18T11:24:55.986Z,5.61
2018-12-18T11:27:23.603Z,5.63
2018-12-18T11:29:51.192Z,5.65
2018-12-18T11:32:18.814Z,5.67
2018-12-18T11:34:46.400Z,5.68
2018-12-18T11:37:14.013Z,5.71
2018-12-18T11:39:41.623Z,5.69
2018-12-18T11:42:09.235Z,5.68
2018-12-18T11:44:36.828Z,5.68
2018-12-18T11:47:04.475Z,5.66
2018-12-18T11:49:32.172Z,5.65
2018-12-18T11:51:59.760Z,5.61
2018-12-18T11:54:27.373Z,5.63
2018-12-18T11:56:54.966Z,5.62
2018-12-18T11:59:22.578Z,5.55
2018-12-18T12:01:50.167Z,5.58
2018-12-18T12:04:17.785Z,5.59
2018-12-18T12:06:45.377Z,5.65
2018-12-18T12:09:12.989Z,5.67
2018-12-18T12:11:40.579Z,5.69
2018-12-18T12:14:08.200Z,5.71
2018-12-18T12:16:35.793Z,5.69
2018-12-18T12:19:03.406Z,5.67
2018-12-18T12:21:30.995Z,5.70
2018-12-18T12:23:58.607Z,5.74
2018-12-18T12:26:31.851Z,5.82
2018-12-18T12:28:59.466Z,5.86
2018-12-18T12:31:27.059Z,5.81
2018-12-18T12:33:54.662Z,5.80
2018-12-18T12:36:22.257Z,5.80
2018-12-18T12:38:49.873Z,5.84
2018-12-18T12:41:17.470Z,5.79
2018-12-18T12:43:45.091Z,5.75
2018-12-18T12:46:12.680Z,5.74
2018-12-18T12:48:45.838Z,5.64
2018-12-18T12:51:13.439Z,5.55
2018-12-18T12:53:41.043Z,5.50
2018-12-18T12:56:08.631Z,5.42
2018-12-18T12:58:36.247Z,5.56
2018-12-18T13:01:03.840Z,5.70
2018-12-18T13:03:31.455Z,5.84
2018-12-18T13:05:59.043Z,5.93
2018-12-18T13:08:26.635Z,6.00
2018-12-18T13:10:54.247Z,6.05
2018-12-18T13:13:21.849Z,6.07
2018-12-18T13:15:49.460Z,6.04
2018-12-18T13:18:17.050Z,5.97
2018-12-18T13:20:44.669Z,5.93
2018-12-18T13:23:12.268Z,5.83
2018-12-18T13:25:39.884Z,5.73
2018-12-18T13:28:07.477Z,5.61
2018-12-18T13:30:35.094Z,5.55
2018-12-18T13:33:02.679Z,5.46
2018-12-18T13:35:30.302Z,5.42
2018-12-18T13:37:57.976Z,5.41
2018-12-18T13:40:25.587Z,5.39
2018-12-18T13:42:53.187Z,5.36
2018-12-18T13:45:20.802Z,5.31
2018-12-18T13:47:48.396Z,5.20
2018-12-18T13:50:16.007Z,5.19
2018-12-18T13:52:43.614Z,5.13
2018-12-18T13:55:11.232Z,5.08
2018-12-18T13:57:38.825Z,4.94
2018-12-18T14:00:06.539Z,4.87
2018-12-18T14:02:34.131Z,4.80
2018-12-18T14:05:01.762Z,4.75
2018-12-18T14:07:29.368Z,4.73
2018-12-18T14:09:56.990Z,4.70
2018-12-18T14:12:24.596Z,4.66
2018-12-18T14:14:53.086Z,4.61
2018-12-18T14:17:20.706Z,4.68
2018-12-18T14:19:48.339Z,4.73
2018-12-18T14:22:15.967Z,4.70
2018-12-18T14:24:43.621Z,4.71
2018-12-18T14:27:11.221Z,4.65
2018-12-18T14:29:38.857Z,4.59
2018-12-18T14:32:06.539Z,4.52
2018-12-18T14:34:34.184Z,4.40
2018-12-18T14:37:01.792Z,4.31
2018-12-18T14:39:29.394Z,4.25
2018-12-18T14:41:57.012Z,4.19
2018-12-18T14:44:32.115Z,4.09
2018-12-18T14:46:59.734Z,4.00
2018-12-18T14:49:27.330Z,3.95
2018-12-18T14:51:54.942Z,3.93
2018-12-18T14:54:22.571Z,4.03
2018-12-18T14:56:50.213Z,4.13
2018-12-18T14:59:18.275Z,4.18
2018-12-18T15:01:45.890Z,4.17
2018-12-18T15:04:13.562Z,4.11
2018-12-18T15:06:41.243Z,4.04
2018-12-18T15:09:08.839Z,3.92
2018-12-18T15:11:36.536Z,3.89
2018-12-18T15:14:04.211Z,3.81
2018-12-18T15:16:31.836Z,3.74
2018-12-18T15:18:59.431Z,3.61
2018-12-18T15:21:27.047Z,3.60
2018-12-18T15:23:54.647Z,3.70
2018-12-18T15:26:22.263Z,3.82
2018-12-18T15:28:49.857Z,3.94
2018-12-18T15:31:17.470Z,4.00
2018-12-18T15:33:45.066Z,4.04
2018-12-18T15:36:12.682Z,4.05
2018-12-18T15:38:40.272Z,4.10
2018-12-18T15:41:07.897Z,4.14
2018-12-18T15:43:35.500Z,4.16
2018-12-18T15:46:03.118Z,4.16
2018-12-18T15:48:30.722Z,4.18
2018-12-18T15:50:58.340Z,4.20
2018-12-18T15:53:25.929Z,4.23
2018-12-18T15:55:53.544Z,4.22
2018-12-18T15:58:21.152Z,4.21
2018-12-18T16:00:48.791Z,4.20
2018-12-18T16:03:17.122Z,4.18
2018-12-18T16:05:45.019Z,4.19
2018-12-18T16:08:12.616Z,4.20
2018-12-18T16:10:40.241Z,4.20
2018-12-18T16:13:07.833Z,4.20
2018-12-18T16:15:35.449Z,4.20
2018-12-18T16:18:03.042Z,4.19
2018-12-18T16:20:30.840Z,4.20
2018-12-18T16:22:58.436Z,4.18
2018-12-18T16:25:26.035Z,4.23
2018-12-18T16:27:53.650Z,4.26
2018-12-18T16:30:21.242Z,4.26
2018-12-18T16:32:48.867Z,4.25
2018-12-18T16:35:16.463Z,4.25
2018-12-18T16:37:44.080Z,4.21
2018-12-18T16:40:11.683Z,4.29
2018-12-18T16:42:39.304Z,4.27
2018-12-18T16:45:07.163Z,4.25
2018-12-18T16:47:34.787Z,4.24
2018-12-18T16:50:02.382Z,4.24
2018-12-18T16:52:30.005Z,4.28
2018-12-18T16:54:57.605Z,4.27
2018-12-18T16:57:25.262Z,4.24
2018-12-18T16:59:52.857Z,4.22
2018-12-18T17:02:20.861Z,4.20
2018-12-18T17:04:48.477Z,4.19
2018-12-18T17:07:16.123Z,4.17
2018-12-18T17:09:43.717Z,4.10
2018-12-18T17:12:11.331Z,4.01
2018-12-18T17:14:39.363Z,3.91
2018-12-18T17:17:07.014Z,3.78
2018-12-18T17:19:34.611Z,3.67
2018-12-18T17:22:02.234Z,3.60
2018-12-18T17:24:29.828Z,3.58
2018-12-18T17:26:57.441Z,3.50
2018-12-18T17:29:25.037Z,3.47
2018-12-18T17:31:52.656Z,3.37
2018-12-18T17:34:20.702Z,3.35
2018-12-18T17:36:48.349Z,3.35
2018-12-18T17:39:15.943Z,3.30
2018-12-18T17:41:43.567Z,3.26
2018-12-18T17:44:11.165Z,3.23
2018-12-18T17:46:38.796Z,3.22
2018-12-18T17:49:06.488Z,3.20
2018-12-18T17:51:34.077Z,3.21
2018-12-18T17:54:01.699Z,3.25
2018-12-18T17:56:29.292Z,3.22
2018-12-18T17:58:56.907Z,3.19
2018-12-18T18:01:24.578Z,3.22
2018-12-18T18:03:52.205Z,3.23
2018-12-18T18:06:19.795Z,3.24
2018-12-18T18:08:47.410Z,3.18
2018-12-18T18:11:15.004Z,3.12
2018-12-18T18:13:42.620Z,3.05
2018-12-18T18:16:10.208Z,2.97
2018-12-18T18:18:37.830Z,3.02
2018-12-18T18:21:05.424Z,3.04
2018-12-18T18:23:33.036Z,3.02
2018-12-18T18:26:00.718Z,3.04
2018-12-18T18:28:28.339Z,3.02
2018-12-18T18:30:55.928Z,3.08
2018-12-18T18:33:23.572Z,3.05
2018-12-18T18:35:51.176Z,3.06
2018-12-18T18:38:18.809Z,3.07
2018-12-18T18:40:46.450Z,2.92
2018-12-18T18:43:14.126Z,2.91
2018-12-18T18:45:41.731Z,2.86
2018-12-18T18:48:09.354Z,2.80
2018-12-18T18:50:36.955Z,2.82
2018-12-18T18:53:04.566Z,2.79
2018-12-18T18:55:32.167Z,2.73
2018-12-18T18:57:59.790Z,2.65
2018-12-18T19:00:27.384Z,2.61
2018-12-18T19:02:54.998Z,2.58
2018-12-18T19:05:22.589Z,2.53
2018-12-18T19:07:56.274Z,2.54
2018-12-18T19:10:20.011Z,2.42
2018-12-18T19:12:47.607Z,2.43
2018-12-18T19:15:15.223Z,2.52
2018-12-18T19:17:42.820Z,2.51
2018-12-18T19:20:10.440Z,2.44
2018-12-18T19:22:38.031Z,2.42
2018-12-18T19:25:05.873Z,2.38
2018-12-18T19:27:33.474Z,2.35
2018-12-18T19:30:02.190Z,2.32
2018-12-18T19:32:29.851Z,2.32
2018-12-18T19:34:57.464Z,2.26
2018-12-18T19:37:25.066Z,2.31
2018-12-18T19:39:52.969Z,2.24
2018-12-18T19:42:20.644Z,2.20
2018-12-18T19:44:48.344Z,2.13
2018-12-18T19:47:16.022Z,2.09
2018-12-18T19:49:43.640Z,2.01
2018-12-18T19:52:11.234Z,2.14
2018-12-18T19:54:38.851Z,2.10
2018-12-18T19:57:06.443Z,2.06
2018-12-18T19:59:34.057Z,2.03
2018-12-18T20:02:01.653Z,2.06
2018-12-18T20:04:29.271Z,1.96
2018-12-18T20:06:56.855Z,1.90
2018-12-18T20:09:24.481Z,1.86
2018-12-18T20:11:52.988Z,1.88
2018-12-18T20:14:20.629Z,1.82
2018-12-18T20:16:48.220Z,1.79
2018-12-18T20:19:15.840Z,1.77
2018-12-18T20:21:43.428Z,1.83
2018-12-18T20:24:11.068Z,1.83
2018-12-18T20:26:38.658Z,1.82
2018-12-18T20:29:06.250Z,1.76
2018-12-18T20:31:33.864Z,1.73
2018-12-18T20:34:01.459Z,1.67
2018-12-18T20:36:29.076Z,1.59
2018-12-18T20:38:56.668Z,1.66
2018-12-18T20:41:24.276Z,1.58
2018-12-18T20:43:51.881Z,1.54
2018-12-18T20:46:19.505Z,1.60
2018-12-18T20:48:47.104Z,1.60
2018-12-18T20:51:14.712Z,1.61
2018-12-18T20:53:42.305Z,1.63
2018-12-18T20:56:09.928Z,1.55
2018-12-18T20:58:37.531Z,1.51
2018-12-18T21:01:05.148Z,1.48
2018-12-18T21:03:32.748Z,1.50
2018-12-18T21:06:00.370Z,1.43
2018-12-18T21:08:27.977Z,1.36
2018-12-18T21:10:55.600Z,1.27
2018-12-18T21:13:30.500Z,1.23
2018-12-18T21:15:58.260Z,1.29
2018-12-18T21:18:25.857Z,1.29
2018-12-18T21:20:53.452Z,1.37
2018-12-18T21:23:21.062Z,1.33
2018-12-18T21:25:48.658Z,1.36
2018-12-18T21:28:16.277Z,1.40
2018-12-18T21:30:43.866Z,1.39
2018-12-18T21:33:11.487Z,1.50
2018-12-18T21:35:39.098Z,1.45
2018-12-18T21:38:06.712Z,1.44
2018-12-18T21:40:34.311Z,1.53
2018-12-18T21:43:01.927Z,1.48
2018-12-18T21:45:29.521Z,1.50
2018-12-18T21:47:57.141Z,1.51
2018-12-18T21:50:24.733Z,1.45
2018-12-18T21:52:52.334Z,1.44
2018-12-18T21:55:19.934Z,1.50
2018-12-18T21:57:47.547Z,1.50
2018-12-18T22:00:15.137Z,1.49
2018-12-18T22:02:42.768Z,1.45
2018-12-18T22:05:10.362Z,1.47
2018-12-18T22:07:38.072Z,1.41
2018-12-18T22:10:07.316Z,1.34
2018-12-18T22:12:34.931Z,1.45
2018-12-18T22:15:02.531Z,1.52
2018-12-18T22:17:30.150Z,1.48
2018-12-18T22:19:57.744Z,1.43
2018-12-18T22:22:25.371Z,1.42
2018-12-18T22:24:52.966Z,1.41
2018-12-18T22:27:20.558Z,1.38
2018-12-18T22:29:48.177Z,1.32
2018-12-18T22:32:15.767Z,1.24
2018-12-18T22:34:43.381Z,1.21
2018-12-18T22:37:10.968Z,1.23
2018-12-18T22:39:38.593Z,1.20
2018-12-18T22:42:06.192Z,1.20
2018-12-18T22:44:33.809Z,1.26
2018-12-18T22:47:01.398Z,1.20
2018-12-18T22:49:29.018Z,1.17
2018-12-18T22:51:56.616Z,1.29
2018-12-18T22:54:24.227Z,1.25
2018-12-18T22:56:51.818Z,1.21
2018-12-18T22:59:19.431Z,1.22
2018-12-18T23:01:47.099Z,1.30
2018-12-18T23:04:14.708Z,1.25
2018-12-18T23:06:42.391Z,1.21
2018-12-18T23:09:11.987Z,1.19
2018-12-18T23:11:39.582Z,1.16
2018-12-18T23:14:07.199Z,1.18
2018-12-18T23:16:34.796Z,1.30
2018-12-18T23:19:02.423Z,1.32
2018-12-18T23:21:30.015Z,1.28
2018-12-18T23:23:57.609Z,1.23
2018-12-18T23:26:25.365Z,1.17
2018-12-18T23:28:52.950Z,1.20
2018-12-18T23:31:20.568Z,1.24
2018-12-18T23:33:48.159Z,1.14
2018-12-18T23:36:15.773Z,1.14
2018-12-18T23:38:43.372Z,1.04
2018-12-18T23:41:10.991Z,1.03
2018-12-18T23:43:38.581Z,1.01
2018-12-18T23:46:06.196Z,0.93
2018-12-18T23:48:39.569Z,0.85
2018-12-18T23:51:03.620Z,0.82
2018-12-18T23:53:31.211Z,0.83
2018-12-18T23:55:58.828Z,0.95
2018-12-18T23:58:26.423Z,0.95
